• Join FlightAware (Why Join?)
  • Login
  • US Flag 
04:33AM EDT


 

Airport Tracker/Info


-or-


 

Live Flight TrackerFlight Track Log ✈ GJS6234 ✈ 20-Jun-2013 ✈ KLGA - KSYR

Flight Track Log - Related Links

Times and Time Zones

All times are in EDT time to prevent confusion due to time zone crossing. See the GJS6234 flight status page for this flight to view local times or setup timezone preferences in your user account.

Time Position Orientation Groundspeed Altitude Reporting Facility
EDT Latitude Longitude Course Direction KTS MPH feet Rate Location/Type
05:17PM 40.7500 -73.8167 313° West 179 206 2,100  Level New York TRACON
05:18PM 40.8000 -73.7667 37° Northeast 248 285 4,700 2,580 Climbing New York TRACON
05:19PM 40.8500 -73.8167 323° Northwest 259 298 7,300 2,520 Climbing New York TRACON
05:20PM 40.9000 -73.9000 308° West 270 311 9,800 2,700 Climbing New York TRACON
05:21PM 40.9333 -73.9833 298° West 280 322 12,800 2,100 Climbing New York TRACON
05:22PM 40.9833 -74.0833 304° West 325 374 14,100 1,080 Climbing New York TRACON
05:23PM 41.0698 -74.3353 313° West  Level FlightAware Approximate
05:24PM 41.0844 -74.2836 304° West 365 420 16,000  Level New York Center
05:25PM 41.1353 -74.3881 303° West 370 426 16,000  Level New York Center
05:26PM 41.1961 -74.5128 303° West 375 432 16,000 300 Level New York Center
05:27PM 41.2550 -74.6236 305° West 375 432 16,700 1,200 Climbing New York Center
05:28PM 41.3203 -74.7297 309° West 375 432 18,400 1,560 Climbing New York Center
05:29PM 41.3814 -74.8272 310° West 375 432 19,900 1,500 Climbing New York Center
05:30PM 41.4525 -74.9367 311° West 385 443 21,400 1,020 Climbing New York Center
05:31PM 41.5236 -75.0492 310° West 385 443 22,000 300 Climbing New York Center
05:32PM 41.6033 -75.1458 318° Northwest 390 449 22,000  Level New York Center
05:34PM 41.7556 -75.3011 323° Northwest 381 438 22,000  Level Boston Center
05:35PM 41.8542 -75.3642 335° Northwest 381 438 22,000  Level Boston Center
05:36PM 41.9731 -75.4367 336° Northwest 386 444 22,000  Level Boston Center
05:37PM 42.0736 -75.5000 335° Northwest 392 451 22,000 -240 Level Boston Center
05:38PM 42.1719 -75.5639 334° Northwest 392 451 21,600 -1,140 Descending Boston Center
05:39PM 42.2681 -75.6247 335° Northwest 392 451 19,600 -1,980 Descending Boston Center
05:40PM 42.3725 -75.6947 334° Northwest 374 430 17,500 -2,100 Descending Boston Center
05:42PM 42.4811 -75.7622 335° Northwest 370 426 15,100 -2,160 Descending Boston Center
05:43PM 42.5650 -75.8175 334° Northwest 345 397 12,800 -2,100 Descending Boston Center
05:44PM 42.6547 -75.8761 334° Northwest 335 386 11,100 -1,380 Descending Boston Center
05:45PM 42.7344 -75.9286 334° Northwest 282 325 9,900 -1,560 Descending Boston Center
05:46PM 42.8128 -75.9586 344° North 274 315 7,700 -1,920 Descending Boston Center
05:47PM 42.8875 -75.9003 30° Northeast 289 333 5,900 -1,620 Descending Boston Center
05:48PM 42.9578 -75.8506 27° Northeast 282 325 4,500 -900 Descending Boston Center
05:49PM 43.0297 -75.8231 16° North 262 302 4,100 -360 Descending Boston Center
05:50PM 43.0981 -75.8356 352° North 244 281 3,700 -720 Descending Boston Center
05:51PM 43.1147 -75.9047 288° West 203 234 2,800 -1,140 Descending Boston Center
05:52PM 43.1128 -75.9700 268° West 203 234 2,000 -780 Descending Boston Center
05:52PM 43.1161 -75.9986 279° West 176 203 1,800 -540 Descending Boston Center
05:53PM 43.1106 -76.0411 260° West 163 188 1,400 -780 Descending Boston Center
05:53PM 43.1119 -76.0639 275° West 164 189 900 -660 Descending Boston Center
05:54PM 43.1103 -76.1122 267° West 148 170 400 -540 Descending Boston Center
05:59PM 43.1112 -76.1063 124° Southeast  Level Estimated
06:06PM 43.1112 -76.1063 124° Southeast  Level Estimated
06:07PM 43.1112 -76.1063 124° Southeast  Level Estimated
06:08PM 43.1112 -76.1063 124° Southeast  Level Estimated